sensor_id;sensor_type;location;lat;lon;timestamp;pressure;altitude;pressure_sealevel;temperature;humidity
41467;BME280;27205;53.690;19.948;2022-09-09T00:04:09;99801.55;;;14.37;51.63
41467;BME280;27205;53.690;19.948;2022-09-09T00:09:18;99800.38;;;14.33;52.01
41467;BME280;27205;53.690;19.948;2022-09-09T00:14:54;99797.54;;;14.29;52.02
41467;BME280;27205;53.690;19.948;2022-09-09T00:25:37;99793.30;;;14.26;52.52
41467;BME280;27205;53.690;19.948;2022-09-09T00:30:42;99784.39;;;14.24;52.85
41467;BME280;27205;53.690;19.948;2022-09-09T00:35:56;99781.34;;;14.23;52.85
41467;BME280;27205;53.690;19.948;2022-09-09T00:41:06;99777.40;;;14.18;53.08
41467;BME280;27205;53.690;19.948;2022-09-09T01:02:28;99763.86;;;14.09;53.68
41467;BME280;27205;53.690;19.948;2022-09-09T01:07:33;99761.48;;;14.08;54.02
41467;BME280;27205;53.690;19.948;2022-09-09T01:12:42;99765.59;;;14.07;53.95
41467;BME280;27205;53.690;19.948;2022-09-09T01:18:12;99769.77;;;14.04;54.25
41467;BME280;27205;53.690;19.948;2022-09-09T01:28:36;99770.94;;;13.98;54.34
41467;BME280;27205;53.690;19.948;2022-09-09T01:33:39;99772.34;;;13.97;54.35
41467;BME280;27205;53.690;19.948;2022-09-09T01:38:43;99771.28;;;13.93;54.14
41467;BME280;27205;53.690;19.948;2022-09-09T01:43:47;99778.27;;;13.92;53.92
41467;BME280;27205;53.690;19.948;2022-09-09T01:48:52;99777.70;;;13.91;54.38
41467;BME280;27205;53.690;19.948;2022-09-09T01:53:56;99774.02;;;13.87;54.31
41467;BME280;27205;53.690;19.948;2022-09-09T02:04:37;99781.45;;;13.81;54.30
41467;BME280;27205;53.690;19.948;2022-09-09T02:09:40;99783.05;;;13.80;54.40
41467;BME280;27205;53.690;19.948;2022-09-09T02:15:07;99789.20;;;13.77;54.56
41467;BME280;27205;53.690;19.948;2022-09-09T02:20:14;99789.35;;;13.76;54.50
41467;BME280;27205;53.690;19.948;2022-09-09T02:25:21;99794.09;;;13.76;54.49
41467;BME280;27205;53.690;19.948;2022-09-09T02:30:26;99798.38;;;13.77;54.53
41467;BME280;27205;53.690;19.948;2022-09-09T02:35:32;99801.30;;;13.78;54.82
41467;BME280;27205;53.690;19.948;2022-09-09T02:40:40;99803.56;;;13.78;54.96
41467;BME280;27205;53.690;19.948;2022-09-09T02:45:56;99803.02;;;13.74;55.68
41467;BME280;27205;53.690;19.948;2022-09-09T02:56:47;99806.01;;;13.59;56.62
41467;BME280;27205;53.690;19.948;2022-09-09T03:01:53;99805.69;;;13.49;56.58
41467;BME280;27205;53.690;19.948;2022-09-09T03:06:57;99810.77;;;13.42;57.10
41467;BME280;27205;53.690;19.948;2022-09-09T03:12:02;99819.89;;;13.31;57.20
41467;BME280;27205;53.690;19.948;2022-09-09T03:17:07;99826.27;;;13.18;57.75
41467;BME280;27205;53.690;19.948;2022-09-09T03:22:12;99825.65;;;13.05;58.93
41467;BME280;27205;53.690;19.948;2022-09-09T03:27:16;99824.08;;;12.92;59.06
41467;BME280;27205;53.690;19.948;2022-09-09T03:32:20;99812.52;;;12.82;59.36
41467;BME280;27205;53.690;19.948;2022-09-09T03:37:25;99808.48;;;12.69;60.24
41467;BME280;27205;53.690;19.948;2022-09-09T03:42:29;99808.57;;;12.60;60.90
41467;BME280;27205;53.690;19.948;2022-09-09T03:47:33;99808.92;;;12.56;61.17
41467;BME280;27205;53.690;19.948;2022-09-09T03:52:38;99813.90;;;12.51;61.79
41467;BME280;27205;53.690;19.948;2022-09-09T03:57:42;99811.72;;;12.40;62.67
41467;BME280;27205;53.690;19.948;2022-09-09T04:02:45;99814.04;;;12.36;62.07
41467;BME280;27205;53.690;19.948;2022-09-09T04:07:49;99813.17;;;12.28;61.89
41467;BME280;27205;53.690;19.948;2022-09-09T04:12:52;99816.81;;;12.21;62.47
41467;BME280;27205;53.690;19.948;2022-09-09T04:17:55;99807.89;;;12.14;62.99
41467;BME280;27205;53.690;19.948;2022-09-09T04:22:58;99807.73;;;12.08;63.06
41467;BME280;27205;53.690;19.948;2022-09-09T04:28:02;99807.88;;;12.01;63.63
41467;BME280;27205;53.690;19.948;2022-09-09T04:33:06;99805.89;;;12.03;63.53
41467;BME280;27205;53.690;19.948;2022-09-09T04:38:10;99804.28;;;12.10;63.83
41467;BME280;27205;53.690;19.948;2022-09-09T04:43:14;99805.45;;;12.15;64.39
41467;BME280;27205;53.690;19.948;2022-09-09T04:48:18;99805.05;;;12.15;64.31
41467;BME280;27205;53.690;19.948;2022-09-09T04:53:22;99803.06;;;12.13;64.59
41467;BME280;27205;53.690;19.948;2022-09-09T04:58:25;99807.11;;;12.12;65.05
41467;BME280;27205;53.690;19.948;2022-09-09T05:03:29;99808.34;;;12.02;65.02
41467;BME280;27205;53.690;19.948;2022-09-09T05:08:32;99808.92;;;11.93;65.27
41467;BME280;27205;53.690;19.948;2022-09-09T05:13:35;99814.37;;;11.95;65.57
41467;BME280;27205;53.690;19.948;2022-09-09T05:18:43;99817.25;;;12.04;65.96
41467;BME280;27205;53.690;19.948;2022-09-09T05:23:47;99820.73;;;12.08;66.12
41467;BME280;27205;53.690;19.948;2022-09-09T05:28:50;99826.06;;;12.02;66.13
41467;BME280;27205;53.690;19.948;2022-09-09T05:33:53;99825.29;;;11.90;66.15
41467;BME280;27205;53.690;19.948;2022-09-09T05:38:57;99823.15;;;11.77;66.59
41467;BME280;27205;53.690;19.948;2022-09-09T05:44:00;99835.29;;;11.70;66.66
41467;BME280;27205;53.690;19.948;2022-09-09T05:49:04;99833.16;;;11.62;67.23
41467;BME280;27205;53.690;19.948;2022-09-09T05:54:08;99833.57;;;11.59;67.22
41467;BME280;27205;53.690;19.948;2022-09-09T05:59:11;99839.23;;;11.54;67.52
41467;BME280;27205;53.690;19.948;2022-09-09T06:04:15;99838.59;;;11.48;67.67
41467;BME280;27205;53.690;19.948;2022-09-09T06:09:19;99836.52;;;11.47;67.94
41467;BME280;27205;53.690;19.948;2022-09-09T06:14:22;99835.66;;;11.44;68.30
41467;BME280;27205;53.690;19.948;2022-09-09T06:19:25;99837.09;;;11.43;68.52
41467;BME280;27205;53.690;19.948;2022-09-09T06:24:29;99835.95;;;11.42;68.92
41467;BME280;27205;53.690;19.948;2022-09-09T06:29:33;99834.58;;;11.41;69.34
41467;BME280;27205;53.690;19.948;2022-09-09T06:34:36;99834.41;;;11.44;69.86
41467;BME280;27205;53.690;19.948;2022-09-09T06:39:39;99836.36;;;11.47;70.07
41467;BME280;27205;53.690;19.948;2022-09-09T06:44:43;99843.91;;;11.49;70.42
41467;BME280;27205;53.690;19.948;2022-09-09T06:49:46;99847.72;;;11.51;70.92
41467;BME280;27205;53.690;19.948;2022-09-09T06:54:50;99847.20;;;11.55;70.93
41467;BME280;27205;53.690;19.948;2022-09-09T06:59:53;99850.67;;;11.62;70.96
41467;BME280;27205;53.690;19.948;2022-09-09T07:04:56;99855.64;;;11.69;71.06
41467;BME280;27205;53.690;19.948;2022-09-09T07:10:02;99859.71;;;11.76;71.28
41467;BME280;27205;53.690;19.948;2022-09-09T07:15:07;99866.39;;;11.79;71.75
41467;BME280;27205;53.690;19.948;2022-09-09T07:20:11;99870.55;;;11.83;71.54
41467;BME280;27205;53.690;19.948;2022-09-09T07:25:15;99873.98;;;11.87;71.36
41467;BME280;27205;53.690;19.948;2022-09-09T07:30:20;99874.00;;;11.90;71.64
41467;BME280;27205;53.690;19.948;2022-09-09T07:35:29;99882.30;;;11.91;71.74
41467;BME280;27205;53.690;19.948;2022-09-09T07:40:33;99883.41;;;11.97;72.03
41467;BME280;27205;53.690;19.948;2022-09-09T07:45:37;99879.84;;;12.07;71.89
41467;BME280;27205;53.690;19.948;2022-09-09T07:50:40;99878.73;;;12.11;72.16
41467;BME280;27205;53.690;19.948;2022-09-09T07:55:43;99877.37;;;12.18;72.06
41467;BME280;27205;53.690;19.948;2022-09-09T08:00:47;99879.91;;;12.32;72.23
41467;BME280;27205;53.690;19.948;2022-09-09T08:05:50;99890.14;;;12.35;72.56
41467;BME280;27205;53.690;19.948;2022-09-09T08:11:01;99893.58;;;12.36;72.92
41467;BME280;27205;53.690;19.948;2022-09-09T08:21:19;99890.85;;;12.59;72.82
41467;BME280;27205;53.690;19.948;2022-09-09T08:31:30;99892.28;;;13.07;73.39
41467;BME280;27205;53.690;19.948;2022-09-09T08:36:45;99889.02;;;13.39;73.49
41467;BME280;27205;53.690;19.948;2022-09-09T08:58:08;99904.42;;;13.47;73.06
41467;BME280;27205;53.690;19.948;2022-09-09T09:13:56;99917.55;;;13.53;73.18
41467;BME280;27205;53.690;19.948;2022-09-09T09:19:01;99921.00;;;13.51;73.25
41467;BME280;27205;53.690;19.948;2022-09-09T09:24:12;99923.80;;;13.49;73.49
41467;BME280;27205;53.690;19.948;2022-09-09T09:29:24;99931.88;;;13.47;73.65
41467;BME280;27205;53.690;19.948;2022-09-09T09:34:28;99932.01;;;13.44;73.87
41467;BME280;27205;53.690;19.948;2022-09-09T09:39:33;99933.45;;;13.39;73.36
41467;BME280;27205;53.690;19.948;2022-09-09T09:45:42;99935.84;;;13.40;73.63
41467;BME280;27205;53.690;19.948;2022-09-09T09:50:49;99931.14;;;13.48;73.69
41467;BME280;27205;53.690;19.948;2022-09-09T09:56:00;99935.96;;;13.59;73.70
41467;BME280;27205;53.690;19.948;2022-09-09T10:01:04;99937.24;;;13.67;73.59
41467;BME280;27205;53.690;19.948;2022-09-09T10:06:07;99938.35;;;13.72;73.68
41467;BME280;27205;53.690;19.948;2022-09-09T10:11:48;99936.86;;;13.76;73.62
41467;BME280;27205;53.690;19.948;2022-09-09T10:42:46;99950.45;;;14.01;74.30
41467;BME280;27205;53.690;19.948;2022-09-09T10:58:55;99955.99;;;14.18;74.49
41467;BME280;27205;53.690;19.948;2022-09-09T11:04:13;99958.12;;;14.20;74.65
41467;BME280;27205;53.690;19.948;2022-09-09T11:09:28;99961.02;;;14.18;74.64
41467;BME280;27205;53.690;19.948;2022-09-09T11:14:59;99966.73;;;14.09;74.62
41467;BME280;27205;53.690;19.948;2022-09-09T11:20:05;99972.73;;;14.06;74.85
41467;BME280;27205;53.690;19.948;2022-09-09T11:30:21;99980.98;;;13.86;74.80
41467;BME280;27205;53.690;19.948;2022-09-09T11:41:13;99980.23;;;13.98;75.12
41467;BME280;27205;53.690;19.948;2022-09-09T11:46:36;99981.80;;;14.00;75.21
41467;BME280;27205;53.690;19.948;2022-09-09T11:51:41;99983.21;;;13.99;75.42
41467;BME280;27205;53.690;19.948;2022-09-09T11:56:45;99988.05;;;13.88;75.37
41467;BME280;27205;53.690;19.948;2022-09-09T12:02:00;99985.80;;;13.89;75.74
41467;BME280;27205;53.690;19.948;2022-09-09T12:12:36;99979.63;;;14.04;76.02
41467;BME280;27205;53.690;19.948;2022-09-09T12:17:52;99978.55;;;14.09;76.02
41467;BME280;27205;53.690;19.948;2022-09-09T12:28:15;99983.34;;;14.19;76.15
41467;BME280;27205;53.690;19.948;2022-09-09T12:33:20;99980.88;;;14.28;76.20
41467;BME280;27205;53.690;19.948;2022-09-09T12:38:36;99982.16;;;14.31;76.52
41467;BME280;27205;53.690;19.948;2022-09-09T12:43:40;99980.36;;;14.39;76.61
41467;BME280;27205;53.690;19.948;2022-09-09T12:48:44;99984.50;;;14.41;76.26
41467;BME280;27205;53.690;19.948;2022-09-09T12:53:48;99989.48;;;14.42;76.25
41467;BME280;27205;53.690;19.948;2022-09-09T12:58:55;99983.55;;;14.52;76.30
41467;BME280;27205;53.690;19.948;2022-09-09T13:03:59;99979.10;;;14.58;76.28
41467;BME280;27205;53.690;19.948;2022-09-09T13:09:03;99982.48;;;14.60;76.45
41467;BME280;27205;53.690;19.948;2022-09-09T13:14:12;99983.17;;;14.48;76.35
41467;BME280;27205;53.690;19.948;2022-09-09T13:19:23;99982.27;;;14.39;76.40
41467;BME280;27205;53.690;19.948;2022-09-09T13:24:33;99978.89;;;14.39;76.39
41467;BME280;27205;53.690;19.948;2022-09-09T13:29:37;99978.10;;;14.43;76.46
41467;BME280;27205;53.690;19.948;2022-09-09T13:34:51;99977.56;;;14.46;76.77
41467;BME280;27205;53.690;19.948;2022-09-09T13:39:55;99973.63;;;14.50;76.60
41467;BME280;27205;53.690;19.948;2022-09-09T13:44:59;99975.55;;;14.45;76.75
41467;BME280;27205;53.690;19.948;2022-09-09T13:55:24;99972.70;;;14.47;76.94
41467;BME280;27205;53.690;19.948;2022-09-09T14:00:33;99968.91;;;14.56;77.11
41467;BME280;27205;53.690;19.948;2022-09-09T14:05:37;99964.05;;;14.63;77.01
41467;BME280;27205;53.690;19.948;2022-09-09T14:10:40;99963.81;;;14.65;76.93
41467;BME280;27205;53.690;19.948;2022-09-09T14:15:44;99966.49;;;14.55;76.76
41467;BME280;27205;53.690;19.948;2022-09-09T14:20:47;99967.09;;;14.46;77.01
41467;BME280;27205;53.690;19.948;2022-09-09T14:25:51;99979.49;;;14.40;77.28
41467;BME280;27205;53.690;19.948;2022-09-09T14:30:54;99984.52;;;14.37;77.37
41467;BME280;27205;53.690;19.948;2022-09-09T14:36:02;99985.13;;;14.30;77.29
41467;BME280;27205;53.690;19.948;2022-09-09T14:41:07;99980.34;;;14.31;77.24
41467;BME280;27205;53.690;19.948;2022-09-09T14:46:12;99983.25;;;14.35;77.76
41467;BME280;27205;53.690;19.948;2022-09-09T14:51:24;99979.27;;;14.37;77.80
41467;BME280;27205;53.690;19.948;2022-09-09T14:56:30;99982.58;;;14.40;77.80
41467;BME280;27205;53.690;19.948;2022-09-09T15:01:33;99988.94;;;14.41;77.78
41467;BME280;27205;53.690;19.948;2022-09-09T15:06:37;99996.18;;;14.40;77.97
41467;BME280;27205;53.690;19.948;2022-09-09T15:11:42;99994.33;;;14.36;78.00
41467;BME280;27205;53.690;19.948;2022-09-09T15:16:46;99998.79;;;14.38;78.06
41467;BME280;27205;53.690;19.948;2022-09-09T15:21:49;100000.98;;;14.36;78.31
41467;BME280;27205;53.690;19.948;2022-09-09T15:26:52;100004.48;;;14.37;78.46
41467;BME280;27205;53.690;19.948;2022-09-09T15:32:34;100002.40;;;14.37;78.35
41467;BME280;27205;53.690;19.948;2022-09-09T15:38:02;100013.27;;;14.27;78.46
41467;BME280;27205;53.690;19.948;2022-09-09T15:43:08;100009.95;;;14.21;78.34
41467;BME280;27205;53.690;19.948;2022-09-09T15:48:12;100011.76;;;14.15;78.56
41467;BME280;27205;53.690;19.948;2022-09-09T15:53:15;100011.73;;;14.18;78.50
41467;BME280;27205;53.690;19.948;2022-09-09T15:58:19;100013.66;;;14.19;78.81
41467;BME280;27205;53.690;19.948;2022-09-09T16:03:22;100013.98;;;14.16;78.96
41467;BME280;27205;53.690;19.948;2022-09-09T16:08:32;100011.98;;;14.08;79.05
41467;BME280;27205;53.690;19.948;2022-09-09T16:13:36;100004.29;;;14.04;79.27
41467;BME280;27205;53.690;19.948;2022-09-09T16:18:42;100001.48;;;13.97;79.48
41467;BME280;27205;53.690;19.948;2022-09-09T16:23:49;100005.34;;;13.90;79.67
41467;BME280;27205;53.690;19.948;2022-09-09T16:28:52;100000.67;;;13.86;79.63
41467;BME280;27205;53.690;19.948;2022-09-09T16:33:57;99996.08;;;13.78;79.91
41467;BME280;27205;53.690;19.948;2022-09-09T16:39:05;99993.05;;;13.72;79.94
41467;BME280;27205;53.690;19.948;2022-09-09T16:44:10;99988.20;;;13.69;80.33
41467;BME280;27205;53.690;19.948;2022-09-09T16:49:14;99997.98;;;13.66;80.40
41467;BME280;27205;53.690;19.948;2022-09-09T16:54:18;100003.90;;;13.64;80.41
41467;BME280;27205;53.690;19.948;2022-09-09T16:59:22;100005.25;;;13.60;80.60
41467;BME280;27205;53.690;19.948;2022-09-09T17:04:27;100002.35;;;13.56;80.87
41467;BME280;27205;53.690;19.948;2022-09-09T17:09:31;100007.81;;;13.49;80.67
41467;BME280;27205;53.690;19.948;2022-09-09T17:14:35;100008.89;;;13.50;80.96
41467;BME280;27205;53.690;19.948;2022-09-09T17:19:38;100008.15;;;13.47;80.79
41467;BME280;27205;53.690;19.948;2022-09-09T17:24:41;100012.92;;;13.38;81.29
41467;BME280;27205;53.690;19.948;2022-09-09T17:29:46;100021.26;;;13.36;81.61
41467;BME280;27205;53.690;19.948;2022-09-09T17:34:50;100029.23;;;13.33;81.74
41467;BME280;27205;53.690;19.948;2022-09-09T17:39:53;100034.15;;;13.33;81.74
41467;BME280;27205;53.690;19.948;2022-09-09T17:44:56;100035.73;;;13.30;81.63
41467;BME280;27205;53.690;19.948;2022-09-09T17:49:59;100047.27;;;13.27;81.92
41467;BME280;27205;53.690;19.948;2022-09-09T17:55:04;100040.20;;;13.25;81.81
41467;BME280;27205;53.690;19.948;2022-09-09T18:00:08;100043.67;;;13.21;82.03
41467;BME280;27205;53.690;19.948;2022-09-09T18:05:12;100056.07;;;13.16;82.11
41467;BME280;27205;53.690;19.948;2022-09-09T18:10:15;100056.39;;;13.12;82.49
41467;BME280;27205;53.690;19.948;2022-09-09T18:15:18;100053.31;;;13.12;82.56
41467;BME280;27205;53.690;19.948;2022-09-09T18:20:42;100049.55;;;13.09;82.60
41467;BME280;27205;53.690;19.948;2022-09-09T18:25:46;100047.61;;;13.03;82.72
41467;BME280;27205;53.690;19.948;2022-09-09T18:30:50;100043.40;;;12.99;82.68
41467;BME280;27205;53.690;19.948;2022-09-09T18:35:54;100047.80;;;12.96;82.87
41467;BME280;27205;53.690;19.948;2022-09-09T18:40:58;100051.00;;;12.94;82.84
41467;BME280;27205;53.690;19.948;2022-09-09T18:46:03;100060.55;;;12.92;83.00
41467;BME280;27205;53.690;19.948;2022-09-09T18:51:09;100058.77;;;12.89;83.01
41467;BME280;27205;53.690;19.948;2022-09-09T18:56:12;100060.27;;;12.86;83.48
41467;BME280;27205;53.690;19.948;2022-09-09T19:01:18;100062.20;;;12.83;83.47
41467;BME280;27205;53.690;19.948;2022-09-09T19:06:25;100078.04;;;12.80;83.19
41467;BME280;27205;53.690;19.948;2022-09-09T19:11:30;100082.27;;;12.81;83.54
41467;BME280;27205;53.690;19.948;2022-09-09T19:16:34;100078.86;;;12.82;83.80
41467;BME280;27205;53.690;19.948;2022-09-09T19:21:39;100080.32;;;12.82;83.90
41467;BME280;27205;53.690;19.948;2022-09-09T19:26:48;100084.88;;;12.80;83.88
41467;BME280;27205;53.690;19.948;2022-09-09T19:31:53;100080.37;;;12.78;83.95
41467;BME280;27205;53.690;19.948;2022-09-09T19:37:20;100075.24;;;12.78;84.32
41467;BME280;27205;53.690;19.948;2022-09-09T19:42:27;100072.38;;;12.82;84.31
41467;BME280;27205;53.690;19.948;2022-09-09T19:47:32;100066.80;;;12.82;84.49
41467;BME280;27205;53.690;19.948;2022-09-09T19:52:35;100054.44;;;12.82;84.32
41467;BME280;27205;53.690;19.948;2022-09-09T19:57:41;100054.05;;;12.79;84.48
41467;BME280;27205;53.690;19.948;2022-09-09T20:02:44;100053.16;;;12.78;84.59
41467;BME280;27205;53.690;19.948;2022-09-09T20:08:07;100046.85;;;12.75;84.55
41467;BME280;27205;53.690;19.948;2022-09-09T20:13:10;100042.32;;;12.74;84.72
41467;BME280;27205;53.690;19.948;2022-09-09T20:18:14;100037.30;;;12.73;84.61
41467;BME280;27205;53.690;19.948;2022-09-09T20:23:17;100038.77;;;12.72;84.99
41467;BME280;27205;53.690;19.948;2022-09-09T20:28:21;100032.94;;;12.68;85.14
41467;BME280;27205;53.690;19.948;2022-09-09T20:33:24;100033.87;;;12.66;85.04
41467;BME280;27205;53.690;19.948;2022-09-09T20:38:30;100041.15;;;12.66;85.11
41467;BME280;27205;53.690;19.948;2022-09-09T20:43:35;100040.40;;;12.66;85.32
41467;BME280;27205;53.690;19.948;2022-09-09T20:48:39;100041.17;;;12.68;85.58
41467;BME280;27205;53.690;19.948;2022-09-09T20:53:44;100050.61;;;12.70;85.64
41467;BME280;27205;53.690;19.948;2022-09-09T20:58:48;100053.14;;;12.71;85.95
41467;BME280;27205;53.690;19.948;2022-09-09T21:03:51;100058.23;;;12.72;85.92
41467;BME280;27205;53.690;19.948;2022-09-09T21:08:55;100055.75;;;12.75;86.27
41467;BME280;27205;53.690;19.948;2022-09-09T21:13:58;100055.09;;;12.78;86.28
41467;BME280;27205;53.690;19.948;2022-09-09T21:19:02;100053.82;;;12.77;86.38
41467;BME280;27205;53.690;19.948;2022-09-09T21:24:05;100056.02;;;12.80;86.02
41467;BME280;27205;53.690;19.948;2022-09-09T21:29:09;100053.48;;;12.82;86.20
41467;BME280;27205;53.690;19.948;2022-09-09T21:34:12;100054.70;;;12.83;86.12
41467;BME280;27205;53.690;19.948;2022-09-09T21:39:17;100056.55;;;12.83;85.97
41467;BME280;27205;53.690;19.948;2022-09-09T21:44:20;100058.16;;;12.86;86.40
41467;BME280;27205;53.690;19.948;2022-09-09T21:49:23;100055.36;;;12.87;86.66
41467;BME280;27205;53.690;19.948;2022-09-09T21:54:28;100050.40;;;12.87;86.53
41467;BME280;27205;53.690;19.948;2022-09-09T21:59:33;100044.40;;;12.89;86.31
41467;BME280;27205;53.690;19.948;2022-09-09T22:04:36;100049.86;;;12.90;86.59
41467;BME280;27205;53.690;19.948;2022-09-09T22:09:40;100051.15;;;12.92;86.67
41467;BME280;27205;53.690;19.948;2022-09-09T22:14:43;100054.48;;;12.94;86.15
41467;BME280;27205;53.690;19.948;2022-09-09T22:19:47;100061.54;;;12.96;86.56
41467;BME280;27205;53.690;19.948;2022-09-09T22:24:50;100066.09;;;12.98;86.78
41467;BME280;27205;53.690;19.948;2022-09-09T22:29:53;100053.69;;;12.99;86.42
41467;BME280;27205;53.690;19.948;2022-09-09T22:34:57;100046.33;;;12.92;86.43
41467;BME280;27205;53.690;19.948;2022-09-09T22:40:01;100044.04;;;12.91;86.69
41467;BME280;27205;53.690;19.948;2022-09-09T22:45:06;100032.83;;;12.91;86.72
41467;BME280;27205;53.690;19.948;2022-09-09T22:50:10;100033.27;;;12.90;86.89
41467;BME280;27205;53.690;19.948;2022-09-09T22:55:14;100034.64;;;12.91;86.53
41467;BME280;27205;53.690;19.948;2022-09-09T23:00:17;100030.34;;;12.90;87.12
41467;BME280;27205;53.690;19.948;2022-09-09T23:05:21;100027.92;;;12.92;87.13
41467;BME280;27205;53.690;19.948;2022-09-09T23:10:26;100021.42;;;12.92;86.89
41467;BME280;27205;53.690;19.948;2022-09-09T23:15:34;100013.79;;;12.91;87.02
41467;BME280;27205;53.690;19.948;2022-09-09T23:20:40;100006.23;;;12.93;86.92
41467;BME280;27205;53.690;19.948;2022-09-09T23:25:43;100008.33;;;12.97;87.06
41467;BME280;27205;53.690;19.948;2022-09-09T23:30:46;100005.45;;;12.96;86.82
41467;BME280;27205;53.690;19.948;2022-09-09T23:36:04;100002.42;;;12.95;87.00
41467;BME280;27205;53.690;19.948;2022-09-09T23:41:13;100000.27;;;12.95;86.94
41467;BME280;27205;53.690;19.948;2022-09-09T23:46:19;99999.73;;;12.92;87.38
41467;BME280;27205;53.690;19.948;2022-09-09T23:51:25;99994.91;;;12.94;87.13
41467;BME280;27205;53.690;19.948;2022-09-09T23:56:35;99994.78;;;12.95;87.25
